El Galpon, Argentina
Current Conditions -  °F | °C
As of 9:00 PM on Monday 22 Dec 2014 (Local Time) from SASA Reporting Station
Drizzle Drizzle  
Wind Chill: 12°   Ceiling: 1000
Heat Index: 12°   Visibility: 4mi
Dew Point: 11°   Wind: 2mph
Humidity: 94%   Direction: 320°NW
Pressure: 30.3"   Gusts: NA
Location:  25.38°S, 64.63°W
Report Text: SASA 230000Z 32002KT 6000 -DZ FEW003 SCT010OVC010 12/11 Q1026
Loading
Personal Weather Stations






























Interactive Weather Map New forecast layout! Learn more

10-Day Weather Forecast

Advertisements
Track Severe Weather on mobile